Meteorología y climatología de Navarra
Datos de la estación - Meteo Navarra

Estación de Tafalla GN

Altitud 430 m.


Datos desde el 30/06/2020 hasta el 01/07/2020 en horario solar
Los datos son PROVISIONALES

Anterior Página 1 de 1 Siguiente Descargar: Formato para Excel 2000 o superior   Formato csv   Formato para OpenOffice Calc
Fecha Temperatura Humedad relativa Radiación global Insolación Precipitación Vel. viento 10 m Vel. viento 10 m Dir. viento 10 m
ºC % W/m² s l/m² m/s km/h º
30/06/2020 0:00 15.3 83 0.0 0 0.0 3.9 14.1 311
30/06/2020 0:10 15.3 82 0.0 0 0.0 4.1 14.8 317
30/06/2020 0:20 15.5 82 0.0 0 0.0 3.9 14.0 313
30/06/2020 0:30 15.4 82 0.0 0 0.0 5.0 17.9 312
30/06/2020 0:40 15.3 83 0.0 0 0.0 4.2 15.1 313
30/06/2020 0:50 15.4 82 0.0 0 0.0 3.5 12.6 315
30/06/2020 1:00 15.4 81 0.0 0 0.0 4.4 15.9 324
30/06/2020 1:10 15.4 81 0.0 0 0.0 5.0 18.1 322
30/06/2020 1:20 15.4 81 0.0 0 0.0 4.7 17.0 316
30/06/2020 1:30 15.3 81 0.0 0 0.0 3.1 11.2 301
30/06/2020 1:40 15.1 82 0.0 0 0.0 1.8 6.6 304
30/06/2020 1:50 15.0 82 0.0 0 0.0 2.0 7.1 327
30/06/2020 2:00 14.5 84 0.0 0 0.0 2.4 8.7 330
30/06/2020 2:10 14.4 85 0.0 0 0.0 2.5 9.1 326
30/06/2020 2:20 14.3 85 0.0 0 0.0 1.7 6.2 324
30/06/2020 2:30 14.0 87 0.0 0 0.0 1.7 6.0 307
30/06/2020 2:40 13.6 90 0.0 0 0.0 1.6 5.9 303
30/06/2020 2:50 13.6 90 0.0 0 0.0 1.0 3.5 313
30/06/2020 3:00 13.6 88 0.0 0 0.0 0.8 2.9 328
30/06/2020 3:10 13.4 90 0.0 0 0.0 0.5 1.8 355
30/06/2020 3:20 13.2 90 0.0 0 0.0 0.9 3.1 328
30/06/2020 3:30 13.2 90 0.0 0 0.0 1.1 4.0 307
30/06/2020 3:40 13.3 89 0.0 0 0.0 1.0 3.5 314
30/06/2020 3:50 13.3 88 0.0 0 0.0 0.7 2.7 353
30/06/2020 4:00 13.2 89 0.0 0 0.0 1.5 5.3 23
30/06/2020 4:10 13.3 88 0.0 0 0.0 1.4 5.0 354
30/06/2020 4:20 13.1 88 0.0 0 0.0 1.5 5.4 356
30/06/2020 4:30 13.3 87 0.0 0 0.0 1.7 6.3 2
30/06/2020 4:40 13.4 86 0.0 0 0.0 2.0 7.1 337
30/06/2020 4:50 13.5 87 0.0 0 0.0 2.4 8.6 317
30/06/2020 5:00 13.5 86 9.9 0 0.0 1.6 5.9 330
30/06/2020 5:10 13.6 86 22.6 0 0.0 1.5 5.3 10
30/06/2020 5:20 13.9 84 35.9 0 0.0 0.9 3.2 341
30/06/2020 5:30 14.0 84 48.7 24 0.0 0.4 1.4 8
30/06/2020 5:40 14.5 79 121.4 600 0.0 1.7 6.0 352
30/06/2020 5:50 15.0 76 129.2 546 0.0 1.8 6.4 334
30/06/2020 6:00 15.0 80 55.6 20 0.0 1.5 5.3 304
30/06/2020 6:10 14.5 87 62.1 0 0.0 1.8 6.4 284
30/06/2020 6:20 14.4 88 101.0 0 0.0 1.2 4.4 275
30/06/2020 6:30 15.0 86 111.8 0 0.0 2.1 7.4 278
30/06/2020 6:40 15.2 84 126.9 0 0.0 2.1 7.6 287
30/06/2020 6:50 15.6 82 140.7 0 0.0 1.9 6.7 287
30/06/2020 7:00 16.1 80 156.3 0 0.0 2.3 8.3 283
30/06/2020 7:10 16.5 79 177.7 0 0.0 2.4 8.6 266
30/06/2020 7:20 16.8 77 196.6 4 0.0 2.4 8.7 267
30/06/2020 7:30 17.3 76 233.2 32 0.0 2.4 8.6 254
30/06/2020 7:40 17.6 73 260.8 60 0.0 2.3 8.4 264
30/06/2020 7:50 18.2 70 287.4 132 0.0 2.3 8.4 271
30/06/2020 8:00 18.6 69 408.0 540 0.0 1.6 5.6 280
30/06/2020 8:10 19.1 66 532.9 538 0.0 0.6 2.2 282
30/06/2020 8:20 20.3 62 548.9 540 0.0 0.8 2.7 182
30/06/2020 8:30 20.8 61 618.9 600 0.0 1.2 4.4 157
30/06/2020 8:40 21.0 62 651.3 600 0.0 1.2 4.2 121
30/06/2020 8:50 21.6 60 657.7 600 0.0 1.0 3.7 160
30/06/2020 9:00 22.4 58 590.0 600 0.0 0.9 3.1 188
30/06/2020 9:10 22.0 63 604.1 570 0.0 2.0 7.1 126
30/06/2020 9:20 22.4 63 766.9 600 0.0 2.6 9.3 131
30/06/2020 9:30 22.5 63 807.0 600 0.0 2.9 10.3 117
30/06/2020 9:40 22.8 62 838.0 600 0.0 2.9 10.6 128
30/06/2020 9:50 23.4 61 816.0 600 0.0 2.9 10.3 137
30/06/2020 10:00 23.8 60 835.0 600 0.0 3.0 10.9 147
30/06/2020 10:10 24.1 59 851.0 600 0.0 2.6 9.3 129
30/06/2020 10:20 23.8 61 866.0 600 0.0 3.3 11.7 124
30/06/2020 10:30 24.7 59 881.0 600 0.0 2.6 9.4 134
30/06/2020 10:40 25.3 58 898.0 600 0.0 3.1 11.1 141
30/06/2020 10:50 25.8 56 911.0 600 0.0 3.3 12.0 145
30/06/2020 11:00 26.7 52 923.0 600 0.0 3.3 12.0 162
30/06/2020 11:10 27.2 50 930.0 600 0.0 3.2 11.4 172
30/06/2020 11:20 27.6 48 939.0 600 0.0 3.5 12.7 182
30/06/2020 11:30 27.8 47 946.0 600 0.0 3.3 11.7 152
30/06/2020 11:40 27.7 46 951.0 600 0.0 2.8 10.0 138
30/06/2020 11:50 28.2 45 957.0 600 0.0 3.0 10.8 142
30/06/2020 12:00 28.4 45 956.0 600 0.0 3.1 11.2 130
30/06/2020 12:10 28.4 44 956.0 600 0.0 2.4 8.6 143
30/06/2020 12:20 29.5 41 959.0 600 0.0 3.1 11.2 181
30/06/2020 12:30 29.5 40 957.0 600 0.0 3.0 10.9 162
30/06/2020 12:40 29.6 40 952.0 600 0.0 3.3 12.0 148
30/06/2020 12:50 29.7 39 949.0 600 0.0 2.8 10.2 135
30/06/2020 13:00 29.8 38 946.0 600 0.0 3.6 13.0 152
30/06/2020 13:10 30.1 37 943.0 600 0.0 3.1 11.1 137
30/06/2020 13:20 30.1 36 935.0 600 0.0 3.0 10.9 139
30/06/2020 13:30 30.1 36 925.0 600 0.0 3.5 12.6 138
30/06/2020 13:40 31.0 33 910.0 600 0.0 2.9 10.3 165
30/06/2020 13:50 30.2 36 898.0 600 0.0 3.3 12.0 114
30/06/2020 14:00 30.3 35 881.0 600 0.0 2.5 9.1 147
30/06/2020 14:10 31.0 34 860.0 600 0.0 2.1 7.7 143
30/06/2020 14:20 30.6 36 842.0 600 0.0 2.6 9.4 125
30/06/2020 14:30 30.9 36 825.0 600 0.0 2.5 9.1 151
30/06/2020 14:40 31.3 36 813.0 600 0.0 1.8 6.6 143
30/06/2020 14:50 31.7 36 793.9 600 0.0 3.1 11.2 156
30/06/2020 15:00 31.4 36 751.3 600 0.0 2.4 8.6 126
30/06/2020 15:10 31.9 35 597.8 600 0.0 2.4 8.5 166
30/06/2020 15:20 31.5 36 560.5 600 0.0 2.4 8.7 176
30/06/2020 15:30 31.8 35 451.2 388 0.0 2.2 7.8 184
30/06/2020 15:40 31.1 36 261.8 0 0.0 2.3 8.1 177
30/06/2020 15:50 31.3 36 332.6 186 0.0 2.8 9.9 185
30/06/2020 16:00 31.1 38 465.1 446 0.0 1.4 5.0 173
30/06/2020 16:10 30.4 41 248.3 0 0.0 0.9 3.4 155
30/06/2020 16:20 29.9 42 268.2 0 0.0 1.5 5.4 168
30/06/2020 16:30 29.7 43 219.2 0 0.0 4.2 15.0 196
30/06/2020 16:40 28.9 44 150.0 0 0.0 3.6 13.0 211
30/06/2020 16:50 28.4 45 108.4 0 0.0 2.6 9.5 217
30/06/2020 17:00 28.2 45 86.9 0 0.0 3.7 13.1 238
30/06/2020 17:10 27.8 44 87.5 0 0.0 4.3 15.4 241
30/06/2020 17:20 27.7 44 86.0 0 0.0 4.6 16.5 247
30/06/2020 17:30 27.5 45 62.0 0 0.0 4.7 16.9 246
30/06/2020 17:40 27.2 46 31.8 0 0.1 3.8 13.6 245
30/06/2020 17:50 25.5 57 25.8 0 0.0 2.2 7.7 314
30/06/2020 18:00 24.7 65 34.3 0 0.0 2.3 8.2 27
30/06/2020 18:10 24.8 63 33.4 0 0.0 1.3 4.6 11
30/06/2020 18:20 24.6 64 22.6 0 0.0 1.6 5.6 239
30/06/2020 18:30 24.7 59 21.0 0 0.0 0.5 1.6 29
30/06/2020 18:40 24.6 63 23.1 0 0.0 3.6 13.0 271
30/06/2020 18:50 24.9 56 18.7 0 0.0 4.1 14.9 246
30/06/2020 19:00 24.9 58 1.3 0 0.0 2.2 7.9 253
30/06/2020 19:10 25.1 54 0.0 0 0.1 5.1 18.5 246
30/06/2020 19:20 24.5 59 0.0 0 0.0 3.0 10.7 149
30/06/2020 19:30 24.6 59 0.0 0 0.0 2.3 8.2 56
30/06/2020 19:40 25.0 59 0.0 0 0.0 3.2 11.7 52
30/06/2020 19:50 24.8 60 0.0 0 0.0 1.9 6.9 54
30/06/2020 20:00 25.2 55 0.0 0 0.0 4.4 15.9 282
30/06/2020 20:10 24.7 56 0.0 0 0.0 3.3 11.8 271
30/06/2020 20:20 23.9 60 0.0 0 0.0 3.9 14.0 245
30/06/2020 20:30 24.0 59 0.0 0 0.0 1.2 4.5 91
30/06/2020 20:40 24.4 57 0.0 0 0.0 1.9 6.8 70
30/06/2020 20:50 24.3 58 0.0 0 0.0 2.5 8.9 324
30/06/2020 21:00 23.0 65 0.0 0 0.0 5.2 18.6 257
30/06/2020 21:10 23.4 62 0.0 0 0.0 6.3 22.7 246
30/06/2020 21:20 23.7 60 0.0 0 0.1 6.6 23.8 247
30/06/2020 21:30 21.9 71 0.0 0 0.0 5.1 18.2 236
30/06/2020 21:40 21.6 71 0.0 0 0.4 6.5 23.4 209
30/06/2020 21:50 20.6 77 0.0 0 0.2 2.3 8.4 238
30/06/2020 22:00 21.8 69 0.0 0 0.0 5.1 18.4 310
30/06/2020 22:10 22.1 69 0.0 0 0.0 3.6 13.0 35
30/06/2020 22:20 22.1 68 0.0 0 0.0 3.4 12.1 20
30/06/2020 22:30 22.4 66 0.0 0 0.0 3.8 13.6 15
30/06/2020 22:40 22.1 67 0.0 0 0.0 3.8 13.6 5
30/06/2020 22:50 22.2 66 0.0 0 0.0 2.0 7.1 328
30/06/2020 23:00 21.4 70 0.0 0 0.0 2.0 7.0 13
30/06/2020 23:10 22.1 67 0.0 0 0.0 3.1 11.1 35
30/06/2020 23:20 22.0 68 0.0 0 0.0 3.1 11.0 9
30/06/2020 23:30 22.0 67 0.0 0 0.0 2.9 10.5 20
30/06/2020 23:40 21.8 67 0.0 0 0.0 1.9 6.7 8
30/06/2020 23:50 21.7 67 0.0 0 0.0 1.0 3.6 285
Anterior Página 1 de 1 Siguiente

NOTA: Tipo de datos según el color:
   - Valores diarios o 10 minutos correctos
   - Valores diarios calculados a partir de un número de datos 10 minutos menor que 144 y mayor que 120, o de un número de datos semihorarios menor que 48 y mayor que 40 (caso de las estaciones de INTIA y del Ministerio)
   - Valores diez minutos estimados


Contacto        Enlaces        Aviso legal